Time;durP1;ratioP1;P1;durP2;ratioP2;P2;SDS_P1;SDS_P2;PMS_P1;PMS_P2;Temp;Humidity;BMP_temperature;BMP_pressure;BME280_temperature;BME280_humidity;BME280_pressure;Samples;Min_cycle;Max_cycle;Signal;HPM_P1;HPM_P2
2021/07/14 00:00:49;;;;;;;0.70;0.60;;;18.10;99.90;;;-143.50;100.00;58913.53;4953371;28;20488;-76
2021/07/14 00:03:16;;;;;;;0.70;0.60;;;18.00;99.90;;;-143.50;100.00;58913.53;4953839;29;20470;-77
2021/07/14 00:05:43;;;;;;;0.70;0.60;;;18.00;99.90;;;-143.50;100.00;58913.53;4962563;28;20447;-76
2021/07/14 00:08:11;;;;;;;0.70;0.60;;;17.90;99.90;;;-143.50;100.00;58913.53;4965637;28;20447;-76
2021/07/14 00:10:39;;;;;;;0.70;0.60;;;17.80;99.90;;;-143.50;100.00;58913.53;4973584;28;20464;-76
2021/07/14 00:24:04;;;;;;;0.70;0.70;;;17.90;99.90;;;-143.50;100.00;58913.53;4954417;28;20452;-76
2021/07/14 00:26:32;;;;;;;0.70;0.60;;;17.90;99.90;;;-143.50;100.00;58913.53;4954684;28;20424;-76
2021/07/14 00:29:04;;;;;;;0.70;0.70;;;17.80;99.90;;;-143.50;100.00;58913.53;4961536;28;20913;-76
2021/07/14 00:31:33;;;;;;;0.70;0.60;;;17.80;99.90;;;-143.50;100.00;58913.53;4976718;28;20823;-77
2021/07/14 00:34:00;;;;;;;0.70;0.60;;;17.80;99.90;;;-143.50;100.00;58913.53;4975704;28;20457;-77
2021/07/14 00:36:28;;;;;;;0.70;0.70;;;17.80;99.90;;;-143.50;100.00;58913.53;4977210;28;20430;-76
2021/07/14 00:38:55;;;;;;;0.70;0.60;;;17.80;99.90;;;-143.50;100.00;58913.53;4975981;28;20487;-77
2021/07/14 00:41:23;;;;;;;0.70;0.60;;;17.80;99.90;;;-143.50;100.00;58913.53;4976316;28;20502;-77
2021/07/14 00:43:51;;;;;;;0.70;0.60;;;17.80;99.90;;;-143.50;100.00;58913.53;4991494;28;20443;-76
2021/07/14 00:46:23;;;;;;;0.70;0.70;;;17.80;99.90;;;-143.50;100.00;58913.53;4976584;28;20486;-77
2021/07/14 00:48:53;;;;;;;0.70;0.60;;;17.80;99.90;;;-143.50;100.00;58913.53;4973750;28;20435;-76
2021/07/14 00:51:21;;;;;;;0.70;0.70;;;17.80;99.90;;;-143.50;100.00;58913.53;4956405;28;20439;-76
2021/07/14 00:53:49;;;;;;;0.70;0.70;;;17.80;99.90;;;-143.50;100.00;58913.53;4956645;28;20456;-76
2021/07/14 00:56:18;;;;;;;0.70;0.60;;;17.70;99.90;;;-143.50;100.00;58913.53;4957583;28;20418;-76
2021/07/14 00:58:45;;;;;;;0.70;0.70;;;17.80;99.90;;;-143.50;100.00;58913.53;4957773;28;20433;-76
2021/07/14 01:01:14;;;;;;;0.70;0.60;;;17.80;99.90;;;-143.50;100.00;58913.53;4975259;28;20465;-77
2021/07/14 01:03:58;;;;;;;0.70;0.60;;;17.70;99.90;;;-143.50;100.00;58913.53;4960032;28;20407;-76
2021/07/14 01:06:41;;;;;;;0.70;0.70;;;17.70;99.90;;;-143.50;100.00;58913.53;4975628;28;20378;-77
2021/07/14 01:09:11;;;;;;;0.70;0.60;;;17.70;99.90;;;-143.50;100.00;58913.53;5007326;28;20462;-77
2021/07/14 01:11:41;;;;;;;0.70;0.60;;;17.70;99.90;;;-143.50;100.00;58913.53;4976320;28;20449;-76
2021/07/14 01:14:24;;;;;;;0.70;0.70;;;17.60;99.90;;;-143.50;100.00;58913.53;4959518;28;20416;-77
2021/07/14 01:17:02;;;;;;;0.70;0.70;;;17.60;99.90;;;-143.50;100.00;58913.53;4975038;28;20447;-77
2021/07/14 01:19:54;;;;;;;0.70;0.60;;;17.60;99.90;;;-143.50;100.00;58913.53;4973677;28;20442;-77
2021/07/14 01:22:36;;;;;;;0.80;0.80;;;17.60;99.90;;;-143.50;100.00;58913.53;4975188;28;20457;-77
2021/07/14 01:25:11;;;;;;;0.70;0.70;;;17.60;99.90;;;-143.50;100.00;58913.53;4958175;28;20452;-76
2021/07/14 01:27:42;;;;;;;0.70;0.70;;;17.50;99.90;;;-143.50;100.00;58913.53;4975981;28;20844;-77
2021/07/14 01:30:13;;;;;;;0.70;0.70;;;17.50;99.90;;;-143.50;100.00;58913.53;4990361;28;20861;-76
2021/07/14 01:32:43;;;;;;;0.70;0.70;;;17.50;99.90;;;-143.50;100.00;58913.53;4975057;28;20442;-77
2021/07/14 01:35:17;;;;;;;0.80;0.70;;;17.50;99.90;;;-143.50;100.00;58913.53;4975129;28;20939;-77
2021/07/14 01:37:47;;;;;;;0.70;0.70;;;17.50;99.90;;;-143.50;100.00;58913.53;4974204;28;20459;-77
2021/07/14 01:40:18;;;;;;;0.70;0.70;;;17.50;99.90;;;-143.50;100.00;58913.53;4963991;28;20432;-76
2021/07/14 01:42:52;;;;;;;0.70;0.70;;;17.50;99.90;;;-143.50;100.00;58913.53;4971659;28;20487;-77
2021/07/14 01:45:20;;;;;;;0.70;0.60;;;17.50;99.90;;;-143.50;100.00;58913.53;4957850;28;20417;-77
2021/07/14 01:47:50;;;;;;;0.70;0.60;;;17.50;99.90;;;-143.50;100.00;58913.53;4975213;28;20547;-77
2021/07/14 01:50:19;;;;;;;0.70;0.70;;;17.50;99.90;;;-143.50;100.00;58913.53;4948388;28;20423;-77
2021/07/14 01:52:49;;;;;;;0.70;0.67;;;17.40;99.90;;;-143.50;100.00;58913.53;4940740;28;20465;-77
2021/07/14 01:55:18;;;;;;;0.70;0.60;;;17.40;99.90;;;-143.50;100.00;58913.53;4971654;28;20480;-77
2021/07/14 01:57:50;;;;;;;0.70;0.70;;;17.50;99.90;;;-143.50;100.00;58913.53;4955604;28;20452;-77
2021/07/14 02:00:18;;;;;;;0.70;0.70;;;17.40;99.90;;;-143.50;100.00;58913.53;4965362;28;20459;-77
2021/07/14 02:05:20;;;;;;;0.70;0.70;;;17.40;99.90;;;-143.50;100.00;58913.53;4975524;28;20892;-77
2021/07/14 02:07:49;;;;;;;0.70;0.70;;;17.40;99.90;;;-143.50;100.00;58913.53;4973798;28;20562;-77
2021/07/14 02:10:18;;;;;;;0.70;0.60;;;17.40;99.90;;;-143.50;100.00;58913.53;4974485;28;20439;-76
2021/07/14 02:12:49;;;;;;;0.70;0.70;;;17.40;99.90;;;-143.50;100.00;58913.53;4974068;28;21030;-77
2021/07/14 02:15:18;;;;;;;0.70;0.67;;;17.30;99.90;;;-143.50;100.00;58913.53;4974036;28;20981;-75
2021/07/14 02:17:53;;;;;;;0.70;0.70;;;17.30;99.90;;;-143.50;100.00;58913.53;4973157;28;20439;-77
2021/07/14 02:20:22;;;;;;;0.70;0.70;;;17.30;99.90;;;-143.50;100.00;58913.53;4955707;28;20432;-76
2021/07/14 02:22:51;;;;;;;0.70;0.60;;;17.30;99.90;;;-143.50;100.00;58913.53;4938818;29;20450;-77
2021/07/14 02:25:20;;;;;;;0.70;0.63;;;17.30;99.90;;;-143.50;100.00;58913.53;4954647;29;20432;-77
2021/07/14 02:27:49;;;;;;;0.70;0.70;;;17.30;99.90;;;-143.50;100.00;58913.53;4957874;28;20455;-77
2021/07/14 02:30:21;;;;;;;0.70;0.60;;;17.30;99.90;;;-143.50;100.00;58913.53;4957868;28;20432;-77
2021/07/14 02:32:53;;;;;;;0.70;0.60;;;17.30;99.90;;;-143.50;100.00;58913.53;4974029;28;20502;-76
2021/07/14 02:35:22;;;;;;;0.70;0.67;;;17.30;99.90;;;-143.50;100.00;58913.53;4973868;28;20443;-77
2021/07/14 02:37:56;;;;;;;0.70;0.70;;;17.30;99.90;;;-143.50;100.00;58913.53;4969967;28;20464;-77
2021/07/14 02:40:30;;;;;;;0.70;0.70;;;17.30;99.90;;;-143.50;100.00;58913.53;4955856;28;20390;-77
2021/07/14 02:43:03;;;;;;;0.70;0.60;;;17.20;99.90;;;-143.50;100.00;58913.53;4954114;28;20436;-77
2021/07/14 02:45:36;;;;;;;0.70;0.70;;;17.20;99.90;;;-143.50;100.00;58913.53;4966525;28;20498;-77
2021/07/14 02:48:04;;;;;;;0.70;0.60;;;17.20;99.90;;;-143.50;100.00;58913.53;4979420;28;20448;-77
2021/07/14 02:50:35;;;;;;;0.70;0.60;;;17.20;99.90;;;-143.50;100.00;58913.53;4974210;28;20783;-77
2021/07/14 02:53:09;;;;;;;0.70;0.70;;;17.20;99.90;;;-143.50;100.00;58913.53;4974688;28;20476;-77
2021/07/14 02:55:40;;;;;;;0.70;0.60;;;17.20;99.90;;;-143.50;100.00;58913.53;4973335;28;20435;-77
2021/07/14 02:58:12;;;;;;;0.70;0.60;;;17.30;99.90;;;-143.50;100.00;58913.53;4973574;28;20411;-77
2021/07/14 03:00:41;;;;;;;0.80;0.73;;;17.20;99.90;;;-143.50;100.00;58913.53;4989039;28;20468;-77
2021/07/14 03:03:11;;;;;;;0.70;0.70;;;17.20;99.90;;;-143.50;100.00;58913.53;4973149;28;20438;-77
2021/07/14 03:05:39;;;;;;;0.70;0.60;;;17.20;99.90;;;-143.50;100.00;58913.53;5005943;28;20423;-77
2021/07/14 03:08:13;;;;;;;0.70;0.60;;;17.20;99.90;;;-143.50;100.00;58913.53;4973416;28;20463;-78
2021/07/14 03:10:43;;;;;;;0.70;0.67;;;17.20;99.90;;;-143.50;100.00;58913.53;4955874;28;20425;-77
2021/07/14 03:13:12;;;;;;;0.70;0.70;;;17.10;99.90;;;-143.50;100.00;58913.53;4953764;29;20442;-77
2021/07/14 03:15:41;;;;;;;0.70;0.70;;;17.10;99.90;;;-143.50;100.00;58913.53;4967452;28;20507;-77
2021/07/14 03:18:14;;;;;;;0.70;0.70;;;17.10;99.90;;;-143.50;100.00;58913.53;4973757;28;20534;-77
2021/07/14 03:20:44;;;;;;;0.70;0.70;;;17.10;99.90;;;-143.50;100.00;58913.53;4962547;28;20829;-77
2021/07/14 03:23:12;;;;;;;0.70;0.60;;;17.10;99.90;;;-143.50;100.00;58913.53;4970871;28;20499;-77
2021/07/14 03:25:42;;;;;;;0.70;0.70;;;17.10;99.90;;;-143.50;100.00;58913.53;4973448;28;20938;-77
2021/07/14 03:28:12;;;;;;;0.70;0.60;;;17.10;99.90;;;-143.50;100.00;58913.53;4974817;28;20422;-77
2021/07/14 03:30:40;;;;;;;0.70;0.70;;;17.10;99.90;;;-143.50;100.00;58913.53;4972093;28;20465;-76
2021/07/14 03:33:07;;;;;;;0.70;0.60;;;17.10;99.90;;;-143.50;100.00;58913.53;4972894;28;20561;-77
2021/07/14 03:35:36;;;;;;;0.70;0.70;;;17.20;99.90;;;-143.50;100.00;58913.53;4972011;28;20451;-77
2021/07/14 03:38:06;;;;;;;0.70;0.60;;;17.20;99.90;;;-143.50;100.00;58913.53;4973941;28;20486;-77
2021/07/14 03:40:35;;;;;;;0.70;0.63;;;17.20;99.90;;;-143.50;100.00;58913.53;4973062;28;20434;-77
2021/07/14 03:43:05;;;;;;;0.70;0.63;;;17.20;99.90;;;-143.50;100.00;58913.53;4972497;28;20450;-77
2021/07/14 03:45:35;;;;;;;0.80;0.70;;;17.20;99.90;;;-143.50;100.00;58913.53;4989242;28;20442;-76
2021/07/14 03:48:04;;;;;;;0.70;0.60;;;17.20;99.90;;;-143.50;100.00;58913.53;4973058;28;20412;-76
2021/07/14 03:50:33;;;;;;;0.70;0.60;;;17.20;99.90;;;-143.50;100.00;58913.53;4974093;28;20819;-77
2021/07/14 03:53:02;;;;;;;0.80;0.70;;;17.20;99.90;;;-143.50;100.00;58913.53;4972799;28;20479;-77
2021/07/14 03:55:30;;;;;;;0.70;0.70;;;17.20;99.90;;;-143.50;100.00;58913.53;4969529;28;20909;-77
2021/07/14 03:57:57;;;;;;;0.70;0.70;;;17.20;99.90;;;-143.50;100.00;58913.53;4974059;28;20438;-77
2021/07/14 04:00:26;;;;;;;0.70;0.60;;;17.20;99.90;;;-143.50;100.00;58913.53;4972997;28;20958;-77
2021/07/14 04:02:55;;;;;;;0.70;0.60;;;17.20;99.90;;;-143.50;100.00;58913.53;4977004;28;20431;-77
2021/07/14 04:05:23;;;;;;;0.70;0.60;;;17.20;99.90;;;-143.50;100.00;58913.53;4957395;29;20456;-76
2021/07/14 04:07:53;;;;;;;0.80;0.80;;;17.10;99.90;;;-143.50;100.00;58913.53;4941130;29;20439;-77
2021/07/14 04:10:21;;;;;;;0.70;0.60;;;17.10;99.90;;;-143.50;100.00;58913.53;4957161;29;20415;-76
2021/07/14 04:12:49;;;;;;;0.70;0.60;;;17.20;99.90;;;-143.50;100.00;58913.53;4968484;28;20883;-76
2021/07/14 04:15:17;;;;;;;0.70;0.60;;;17.20;99.90;;;-143.50;100.00;58913.53;4977926;28;20448;-76
2021/07/14 04:17:45;;;;;;;0.70;0.63;;;17.20;99.90;;;-143.50;100.00;58913.53;4977258;28;20424;-76
2021/07/14 04:20:14;;;;;;;0.70;0.60;;;17.20;99.90;;;-143.50;100.00;58913.53;4976377;28;20445;-77
2021/07/14 04:22:42;;;;;;;0.70;0.60;;;17.20;99.90;;;-143.50;100.00;58913.53;4976364;28;20393;-77
2021/07/14 04:25:11;;;;;;;0.70;0.60;;;17.10;99.90;;;-143.50;100.00;58913.53;4976895;28;20473;-76
2021/07/14 04:27:38;;;;;;;0.70;0.60;;;17.10;99.90;;;-143.50;100.00;58913.53;4977559;28;20776;-77
2021/07/14 04:30:07;;;;;;;0.70;0.70;;;17.10;99.90;;;-143.50;100.00;58913.53;4958237;28;20454;-76
2021/07/14 04:32:35;;;;;;;0.70;0.60;;;17.10;99.90;;;-143.50;100.00;58913.53;4956499;28;20534;-76
2021/07/14 04:35:03;;;;;;;0.70;0.70;;;17.10;99.90;;;-143.50;100.00;58913.53;4959273;28;20508;-77
2021/07/14 04:37:31;;;;;;;0.70;0.63;;;17.10;99.90;;;-143.50;100.00;58913.53;4976970;28;20424;-77
2021/07/14 04:39:59;;;;;;;0.70;0.60;;;17.10;99.90;;;-143.50;100.00;58913.53;4976114;28;20481;-78
2021/07/14 04:42:26;;;;;;;0.70;0.60;;;17.10;99.90;;;-143.50;100.00;58913.53;4959829;28;20459;-77
2021/07/14 04:44:54;;;;;;;0.73;0.70;;;17.10;99.90;;;-143.50;100.00;58913.53;4988996;28;20440;-77
2021/07/14 04:47:21;;;;;;;0.70;0.70;;;17.10;99.90;;;-143.50;100.00;58913.53;4956159;29;20435;-78
2021/07/14 04:49:49;;;;;;;0.70;0.70;;;17.10;99.90;;;-143.50;100.00;58913.53;4957900;28;20409;-78
2021/07/14 04:52:17;;;;;;;0.70;0.70;;;17.10;99.90;;;-143.50;100.00;58913.53;4956410;28;21096;-78
2021/07/14 04:54:45;;;;;;;0.70;0.70;;;17.10;99.90;;;-143.50;100.00;58913.53;4956421;28;20466;-77
2021/07/14 04:57:13;;;;;;;0.70;0.60;;;17.10;99.90;;;-143.50;100.00;58913.53;4956613;28;20444;-78
2021/07/14 04:59:40;;;;;;;0.70;0.60;;;17.10;99.90;;;-143.50;100.00;58913.53;4956498;28;20439;-78
2021/07/14 05:02:08;;;;;;;0.70;0.70;;;17.20;99.90;;;-143.50;100.00;58913.53;4965474;28;20577;-78
2021/07/14 05:04:36;;;;;;;0.70;0.70;;;17.20;99.90;;;-143.50;100.00;58913.53;4955871;29;20526;-78
2021/07/14 05:07:04;;;;;;;0.70;0.60;;;17.20;99.90;;;-143.50;100.00;58913.53;4973443;28;20516;-78
2021/07/14 05:09:32;;;;;;;0.70;0.60;;;17.30;99.90;;;-143.50;100.00;58913.53;4974888;28;20789;-77
2021/07/14 05:12:01;;;;;;;1.83;1.20;;;17.20;99.90;;;-143.50;100.00;58913.53;4975395;28;20466;-77
2021/07/14 05:14:28;;;;;;;0.70;0.60;;;17.20;99.90;;;-143.50;100.00;58913.53;4958322;28;20459;-78
2021/07/14 05:16:56;;;;;;;0.70;0.70;;;17.20;99.90;;;-143.50;100.00;58913.53;4958387;28;20459;-77
2021/07/14 05:19:23;;;;;;;0.70;0.70;;;17.20;99.90;;;-143.50;100.00;58913.53;4961388;28;20426;-78
2021/07/14 05:21:51;;;;;;;0.70;0.70;;;17.30;99.90;;;-143.50;100.00;58913.53;4955952;29;20850;-78
2021/07/14 05:24:18;;;;;;;0.70;0.60;;;17.30;99.90;;;-143.50;100.00;58913.53;4956446;28;20496;-78
2021/07/14 05:26:46;;;;;;;0.70;0.60;;;17.20;99.90;;;-143.50;100.00;58913.53;4957524;28;20950;-79
2021/07/14 05:29:15;;;;;;;0.70;0.70;;;17.30;99.90;;;-143.50;100.00;58913.53;4957200;28;20465;-78
2021/07/14 05:31:43;;;;;;;0.70;0.70;;;17.30;99.90;;;-143.50;100.00;58913.53;4941002;29;20462;-78
2021/07/14 05:34:10;;;;;;;0.70;0.60;;;17.30;99.90;;;-143.50;100.00;58913.53;4957378;28;20878;-78
2021/07/14 05:36:38;;;;;;;0.70;0.70;;;17.30;99.90;;;-143.50;100.00;58913.53;4972868;28;20538;-78
2021/07/14 05:39:05;;;;;;;0.73;0.73;;;17.30;99.90;;;-143.50;100.00;58913.53;4975848;28;20866;-78
2021/07/14 05:41:33;;;;;;;0.70;0.70;;;17.30;99.90;;;-143.50;100.00;58913.53;4991850;28;20455;-78
2021/07/14 05:44:00;;;;;;;0.70;0.70;;;17.30;99.90;;;-143.50;100.00;58913.53;4976998;28;20793;-78
2021/07/14 05:46:30;;;;;;;0.70;0.70;;;17.30;99.90;;;-143.50;100.00;58913.53;4976732;28;20526;-78
2021/07/14 05:49:02;;;;;;;0.70;0.60;;;17.40;99.90;;;-143.50;100.00;58913.53;4976139;28;20459;-78
2021/07/14 05:51:30;;;;;;;0.70;0.70;;;17.40;99.90;;;-143.50;100.00;58913.53;4974563;28;20829;-78
2021/07/14 05:53:58;;;;;;;0.70;0.70;;;17.40;99.90;;;-143.50;100.00;58913.53;4974821;28;20506;-78
2021/07/14 05:56:26;;;;;;;0.70;0.60;;;17.30;99.90;;;-143.50;100.00;58913.53;4974706;28;20448;-78
2021/07/14 05:58:53;;;;;;;0.70;0.70;;;17.30;99.90;;;-143.50;100.00;58913.53;4975882;28;20789;-78
2021/07/14 06:01:21;;;;;;;0.70;0.60;;;17.40;99.90;;;-143.50;100.00;58913.53;4974969;28;20448;-78
2021/07/14 06:03:51;;;;;;;0.70;0.63;;;17.30;99.90;;;-143.50;100.00;58913.53;4974463;28;20526;-78
2021/07/14 06:06:18;;;;;;;0.70;0.70;;;17.40;99.90;;;-143.50;100.00;58913.53;4990482;28;20550;-78
2021/07/14 06:08:47;;;;;;;0.70;0.60;;;17.40;99.90;;;-143.50;100.00;58913.53;4974047;28;20465;-78
2021/07/14 06:11:14;;;;;;;0.70;0.67;;;17.40;99.90;;;-143.50;100.00;58913.53;4974579;28;20411;-78
2021/07/14 06:13:42;;;;;;;0.70;0.70;;;17.40;99.90;;;-143.50;100.00;58913.53;4990152;28;20522;-78
2021/07/14 06:16:10;;;;;;;0.70;0.60;;;17.40;99.90;;;-143.50;100.00;58913.53;4973926;28;20486;-79
2021/07/14 06:18:38;;;;;;;0.70;0.70;;;17.40;99.90;;;-143.50;100.00;58913.53;4974377;28;20912;-79
2021/07/14 06:21:06;;;;;;;0.70;0.60;;;17.40;99.90;;;-143.50;100.00;58913.53;4973906;28;20466;-83
2021/07/14 06:23:36;;;;;;;0.70;0.60;;;17.40;99.90;;;-143.50;100.00;58913.53;4975183;28;20506;-81
2021/07/14 06:26:04;;;;;;;0.70;0.60;;;17.40;99.90;;;-143.50;100.00;58913.53;4961224;28;20454;-80
2021/07/14 06:28:32;;;;;;;0.70;0.70;;;17.40;99.90;;;-143.50;100.00;58913.53;4957762;28;20456;-80
2021/07/14 06:31:04;;;;;;;0.70;0.70;;;17.40;99.90;;;-143.50;100.00;58913.53;4975036;28;20416;-81
2021/07/14 06:33:35;;;;;;;0.70;0.60;;;17.40;99.90;;;-143.50;100.00;58913.53;4965188;28;20555;-80
2021/07/14 06:36:04;;;;;;;0.70;0.70;;;17.40;99.90;;;-143.50;100.00;58913.53;4973332;28;20471;-79
2021/07/14 06:38:35;;;;;;;0.70;0.70;;;17.40;99.90;;;-143.50;100.00;58913.53;4970183;28;20434;-80
2021/07/14 06:41:04;;;;;;;0.70;0.60;;;17.40;99.90;;;-143.50;100.00;58913.53;4970569;28;20436;-79
2021/07/14 06:43:45;;;;;;;0.70;0.60;;;17.40;99.90;;;-143.50;100.00;58913.53;4967206;28;20477;-80
2021/07/14 06:46:16;;;;;;;0.70;0.70;;;17.40;99.90;;;-143.50;100.00;58913.53;4990595;28;20448;-80
2021/07/14 06:48:45;;;;;;;0.70;0.70;;;17.40;99.90;;;-143.50;100.00;58913.53;4964970;28;20454;-79
2021/07/14 06:51:13;;;;;;;0.70;0.70;;;17.40;99.90;;;-143.50;100.00;58913.53;4974621;28;20422;-78
2021/07/14 06:53:43;;;;;;;0.80;0.80;;;17.40;99.90;;;-143.50;100.00;58913.53;4974411;28;20501;-80
2021/07/14 06:56:11;;;;;;;0.70;0.70;;;17.40;99.90;;;-143.50;100.00;58913.53;4990078;28;20398;-81
2021/07/14 06:58:39;;;;;;;0.70;0.70;;;17.50;99.90;;;-143.50;100.00;58913.53;4974572;28;20916;-82
2021/07/14 07:01:08;;;;;;;0.70;0.70;;;17.50;99.90;;;-143.50;100.00;58913.53;4957835;28;20470;-82
2021/07/14 07:03:37;;;;;;;0.70;0.70;;;17.50;99.90;;;-143.50;100.00;58913.53;4975061;28;20447;-81
2021/07/14 07:06:05;;;;;;;0.70;0.70;;;17.60;99.90;;;-143.50;100.00;58913.53;4989315;28;20434;-81
2021/07/14 07:08:35;;;;;;;0.70;0.70;;;17.60;99.90;;;-143.50;100.00;58913.53;4957998;28;20478;-82
2021/07/14 07:11:05;;;;;;;0.70;0.70;;;17.60;99.90;;;-143.50;100.00;58913.53;4972876;28;20443;-80
2021/07/14 07:13:33;;;;;;;0.70;0.60;;;17.70;99.90;;;-143.50;100.00;58913.53;4972812;28;20482;-80
2021/07/14 07:16:04;;;;;;;0.70;0.60;;;17.70;99.90;;;-143.50;100.00;58913.53;4969543;28;20419;-81
2021/07/14 07:18:31;;;;;;;0.70;0.70;;;17.60;99.90;;;-143.50;100.00;58913.53;4958445;28;20449;-80
2021/07/14 07:21:01;;;;;;;0.70;0.60;;;17.60;99.90;;;-143.50;100.00;58913.53;4955905;28;20531;-80
2021/07/14 07:23:31;;;;;;;0.70;0.70;;;17.60;99.90;;;-143.50;100.00;58913.53;4954076;28;20479;-80
2021/07/14 07:25:58;;;;;;;0.70;0.60;;;17.60;99.90;;;-143.50;100.00;58913.53;4954488;29;20436;-80
2021/07/14 07:28:33;;;;;;;0.70;0.60;;;17.60;99.90;;;-143.50;100.00;58913.53;4954315;29;20897;-79
2021/07/14 07:31:04;;;;;;;0.70;0.60;;;17.60;99.90;;;-143.50;100.00;58913.53;4955202;28;20399;-79
2021/07/14 07:33:32;;;;;;;0.70;0.67;;;17.60;99.90;;;-143.50;100.00;58913.53;4938985;29;20515;-79
2021/07/14 07:35:59;;;;;;;0.70;0.60;;;17.60;99.90;;;-143.50;100.00;58913.53;4959390;28;20926;-79
2021/07/14 07:38:28;;;;;;;0.70;0.60;;;17.50;99.90;;;-143.50;100.00;58913.53;4953810;28;20457;-78
2021/07/14 07:40:57;;;;;;;0.70;0.60;;;17.60;99.90;;;-143.50;100.00;58913.53;4955177;28;20432;-79
2021/07/14 07:43:28;;;;;;;0.70;0.70;;;17.60;99.90;;;-143.50;100.00;58913.53;4973542;28;20449;-79
2021/07/14 07:45:56;;;;;;;0.60;0.60;;;17.50;99.90;;;-143.50;100.00;58913.53;4960223;28;20444;-78
2021/07/14 07:48:26;;;;;;;0.70;0.60;;;17.60;99.90;;;-143.50;100.00;58913.53;4973168;28;20474;-79
2021/07/14 07:50:59;;;;;;;0.67;0.63;;;17.50;99.90;;;-143.50;100.00;58913.53;4965199;28;20909;-79
2021/07/14 07:53:27;;;;;;;0.70;0.60;;;17.50;99.90;;;-143.50;100.00;58913.53;4944987;28;20967;-78
2021/07/14 07:55:55;;;;;;;0.70;0.60;;;17.50;99.90;;;-143.50;100.00;58913.53;4959913;28;20440;-79
2021/07/14 07:58:24;;;;;;;0.73;0.70;;;17.50;99.90;;;-143.50;100.00;58913.53;4972895;28;20482;-78
2021/07/14 08:00:53;;;;;;;0.70;0.60;;;17.50;99.90;;;-143.50;100.00;58913.53;4972613;28;21036;-78
2021/07/14 08:03:21;;;;;;;0.63;0.60;;;17.50;99.90;;;-143.50;100.00;58913.53;4974086;28;20402;-79
2021/07/14 08:05:50;;;;;;;0.70;0.70;;;17.50;99.90;;;-143.50;100.00;58913.53;4953280;28;20463;-80
2021/07/14 08:08:18;;;;;;;0.70;0.60;;;17.50;99.90;;;-143.50;100.00;58913.53;4956168;28;20451;-79
2021/07/14 08:10:46;;;;;;;0.70;0.60;;;17.50;99.90;;;-143.50;100.00;58913.53;4954851;28;20407;-78
2021/07/14 08:13:15;;;;;;;0.70;0.60;;;17.60;99.90;;;-143.50;100.00;58913.53;4972723;28;20471;-80
2021/07/14 08:15:43;;;;;;;0.70;0.70;;;17.60;99.90;;;-143.50;100.00;58913.53;4984390;28;20445;-80
2021/07/14 08:18:12;;;;;;;0.70;0.60;;;17.70;99.90;;;-143.50;100.00;58913.53;4955233;28;20421;-81
2021/07/14 08:20:41;;;;;;;0.70;0.70;;;17.70;99.90;;;-143.50;100.00;58913.53;4955942;28;20425;-80
2021/07/14 08:23:11;;;;;;;0.70;0.60;;;17.80;99.90;;;-143.50;100.00;58913.53;4964005;28;20868;-79
2021/07/14 08:25:39;;;;;;;0.70;0.60;;;17.80;99.90;;;-143.50;100.00;58913.53;4972398;28;20447;-79
2021/07/14 08:28:06;;;;;;;0.70;0.60;;;17.70;99.90;;;-143.50;100.00;58913.53;4972354;28;20509;-79
2021/07/14 08:30:34;;;;;;;0.70;0.60;;;17.80;99.90;;;-143.50;100.00;58913.53;4974936;28;20436;-78
2021/07/14 08:33:03;;;;;;;0.70;0.60;;;17.70;99.90;;;-143.50;100.00;58913.53;4972574;28;20533;-79
2021/07/14 08:35:32;;;;;;;0.70;0.60;;;17.70;99.90;;;-143.50;100.00;58913.53;4952234;28;20439;-82
2021/07/14 08:37:59;;;;;;;0.70;0.60;;;17.70;99.90;;;-143.50;100.00;58913.53;4973497;28;20471;-80
2021/07/14 08:40:27;;;;;;;0.70;0.70;;;17.80;99.90;;;-143.50;100.00;58913.53;4967774;28;20449;-80
2021/07/14 08:43:15;;;;;;;0.67;0.60;;;17.80;99.90;;;-143.50;100.00;58913.53;4971357;28;20410;-81
2021/07/14 08:45:44;;;;;;;0.70;0.60;;;17.80;99.90;;;-143.50;100.00;58913.53;4963940;28;20426;-81
2021/07/14 08:48:14;;;;;;;0.70;0.60;;;17.80;99.90;;;-143.50;100.00;58913.53;4985842;28;20483;-80
2021/07/14 08:50:44;;;;;;;0.70;0.70;;;17.80;99.90;;;-143.50;100.00;58913.53;5003282;28;20799;-80
2021/07/14 08:53:17;;;;;;;0.70;0.70;;;17.80;99.90;;;-143.50;100.00;58913.53;4988782;28;20476;-80
2021/07/14 08:55:47;;;;;;;0.70;0.70;;;17.80;99.90;;;-143.50;100.00;58913.53;4988913;28;20441;-80
2021/07/14 08:58:16;;;;;;;0.70;0.60;;;17.90;99.90;;;-143.50;100.00;58913.53;4972457;28;20444;-80
2021/07/14 09:00:47;;;;;;;0.70;0.70;;;17.90;99.90;;;-143.50;100.00;58913.53;4946313;28;20470;-80
2021/07/14 09:03:15;;;;;;;0.70;0.70;;;17.90;99.90;;;-143.50;100.00;58913.53;4974730;28;20451;-80
2021/07/14 09:06:11;;;;;;;0.70;0.60;;;17.90;99.90;;;-143.50;100.00;58913.53;4975115;28;20530;-80
2021/07/14 09:08:39;;;;;;;0.70;0.70;;;17.90;99.90;;;-143.50;100.00;58913.53;4965741;28;20471;-81
2021/07/14 09:11:07;;;;;;;0.70;0.60;;;17.90;99.90;;;-143.50;100.00;58913.53;4962927;28;20437;-79
2021/07/14 09:13:40;;;;;;;0.70;0.70;;;17.80;99.90;;;-143.50;100.00;58913.53;4972147;28;20523;-81
2021/07/14 09:16:08;;;;;;;0.70;0.60;;;17.90;99.90;;;-143.50;100.00;58913.53;4974128;28;20402;-81
2021/07/14 09:18:37;;;;;;;0.73;0.73;;;17.80;99.90;;;-143.50;100.00;58913.53;4975473;28;20446;-82
2021/07/14 09:21:17;;;;;;;0.70;0.60;;;17.90;99.90;;;-143.50;100.00;58913.53;4972486;28;20436;-81
2021/07/14 09:23:45;;;;;;;0.70;0.60;;;17.90;99.90;;;-143.50;100.00;58913.53;4973146;28;20988;-81
2021/07/14 09:26:13;;;;;;;0.70;0.60;;;17.90;99.90;;;-143.50;100.00;58913.53;4975439;28;20478;-81
2021/07/14 09:28:42;;;;;;;0.70;0.60;;;17.90;99.90;;;-143.50;100.00;58913.53;4948485;28;20915;-81
2021/07/14 09:31:13;;;;;;;0.70;0.60;;;17.90;99.90;;;-143.50;100.00;58913.53;4988707;28;20419;-82
2021/07/14 09:33:43;;;;;;;0.70;0.70;;;18.00;99.90;;;-143.50;100.00;58913.53;4956108;29;20550;-81
2021/07/14 09:36:11;;;;;;;0.70;0.63;;;18.00;99.90;;;-143.50;100.00;58913.53;4966821;28;20444;-82
2021/07/14 09:38:40;;;;;;;0.70;0.60;;;18.00;99.90;;;-143.50;100.00;58913.53;4984902;28;20682;-81
2021/07/14 09:41:12;;;;;;;0.70;0.70;;;18.10;99.90;;;-143.50;100.00;58913.53;4975231;28;20418;-82
2021/07/14 09:43:42;;;;;;;0.70;0.60;;;18.10;99.90;;;-143.50;100.00;58913.53;4975997;28;21024;-79
2021/07/14 09:46:11;;;;;;;0.70;0.60;;;18.10;99.90;;;-143.50;100.00;58913.53;4974075;28;20475;-82
2021/07/14 09:48:43;;;;;;;0.70;0.70;;;18.10;99.90;;;-143.50;100.00;58913.53;4972369;28;20427;-83
2021/07/14 09:51:13;;;;;;;0.70;0.60;;;18.10;99.90;;;-143.50;100.00;58913.53;4974489;28;20518;-83
2021/07/14 09:53:47;;;;;;;0.70;0.60;;;18.10;99.90;;;-143.50;100.00;58913.53;4959904;28;20533;-82
2021/07/14 09:56:20;;;;;;;0.70;0.70;;;18.10;99.90;;;-143.50;100.00;58913.53;4966360;28;20944;-83
2021/07/14 09:59:02;;;;;;;0.70;0.60;;;18.10;99.90;;;-143.50;100.00;58913.53;4988390;28;20936;-82
2021/07/14 10:01:35;;;;;;;0.70;0.60;;;18.10;99.90;;;-143.50;100.00;58913.53;4974188;28;21079;-82
2021/07/14 10:04:04;;;;;;;0.70;0.70;;;18.20;99.90;;;-143.50;100.00;58913.53;4971457;28;20829;-82
2021/07/14 10:07:05;;;;;;;0.70;0.60;;;18.20;99.90;;;-143.50;100.00;58913.53;4958582;28;20478;-83
2021/07/14 10:09:37;;;;;;;0.70;0.70;;;18.40;99.90;;;-143.50;100.00;58913.53;4955963;28;20469;-82
2021/07/14 10:12:30;;;;;;;0.70;0.60;;;18.50;99.90;;;-143.50;100.00;58913.53;4972325;28;20430;-81
2021/07/14 10:15:18;;;;;;;1.00;0.90;;;18.50;99.90;;;-143.50;100.00;58913.53;4965008;28;20944;-81
2021/07/14 10:17:49;;;;;;;0.70;0.70;;;18.60;99.90;;;-143.50;100.00;58913.53;4961366;28;20426;-83
2021/07/14 10:20:25;;;;;;;0.70;0.70;;;18.70;99.90;;;-143.50;100.00;58913.53;4974869;28;21491;-81
2021/07/14 10:22:56;;;;;;;0.70;0.60;;;18.60;99.90;;;-143.50;100.00;58913.53;4967407;28;20559;-81
2021/07/14 10:25:27;;;;;;;0.70;0.70;;;18.60;99.90;;;-143.50;100.00;58913.53;4986584;28;20447;-83